This is the latest recevied weather packets stored in our database for station/object G4KVI. If no packets are shown the sender has not sent any weather packets the latest 10 day(s).
| Time | Temp. | Humidity | Pressure | Rain* | Wind** | Luminosity | Snow |
|---|---|---|---|---|---|---|---|
| 1788094204 | 20.56° C | 66% | 1009.9 hPa | 0 mm | - | 553 W/m² | - |
| 1788093904 | 20.56° C | 67% | 1010.1 hPa | 0 mm | - | 352 W/m² | - |
| 1788093604 | 20° C | 68% | 1010 hPa | 0 mm | - | 464 W/m² | - |
| 1788093304 | 20° C | 69% | 1010.1 hPa | 0 mm | - | 320 W/m² | - |
| 1788093004 | 20° C | 68% | 1010.2 hPa | 0 mm | - | 321 W/m² | - |
| 1788092704 | 20° C | 69% | 1010.2 hPa | 0 mm | - | 232 W/m² | - |
| 1788092404 | 20° C | 68% | 1010.1 hPa | 0 mm | - | 209 W/m² | - |
| 1788092104 | 20° C | 68% | 1010.2 hPa | 0 mm | - | 228 W/m² | - |
| 1788091804 | 20° C | 70% | 1010.2 hPa | 0 mm | - | 213 W/m² | - |
| 1788091504 | 20° C | 70% | 1010.2 hPa | 0 mm | - | 172 W/m² | - |
| 1788091204 | 20.56° C | 69% | 1010.5 hPa | 0 mm | - | 162 W/m² | - |
| 1788090904 | 20.56° C | 69% | 1010.4 hPa | 0 mm | - | 131 W/m² | - |
| 1788090604 | 20.56° C | 68% | 1010.1 hPa | 0 mm | - | 215 W/m² | - |
| 1788090304 | 21.11° C | 68% | 1010.3 hPa | 0 mm | - | 190 W/m² | - |
| 1788090004 | 21.67° C | 68% | 1010.1 hPa | 0 mm | - | 290 W/m² | - |
| 1788089704 | 21.67° C | 65% | 1010.3 hPa | 0 mm | - | 161 W/m² | - |
| 1788089404 | 21.67° C | 67% | 1010.4 hPa | 0 mm | - | 658 W/m² | - |
| 1788089104 | 21.11° C | 69% | 1010.4 hPa | 0 mm | - | 663 W/m² | - |
| 1788088804 | 21.11° C | 70% | 1010.5 hPa | 0 mm | - | 650 W/m² | - |
| 1788088504 | 20.56° C | 71% | 1010.7 hPa | 0 mm | - | 675 W/m² | - |
| 1788088204 | 21.67° C | 67% | 1010.6 hPa | 0 mm | - | 106 W/m² | - |
| 1788087904 | 21.11° C | 69% | 1010.6 hPa | 0 mm | - | 327 W/m² | - |
| 1788087604 | 21.67° C | 67% | 1010.8 hPa | 0 mm | - | 364 W/m² | - |
| 1788087304 | 21.67° C | 65% | 1010.8 hPa | 0 mm | - | 401 W/m² | - |
| 1788087004 | 21.67° C | 66% | 1010.9 hPa | 0 mm | - | 422 W/m² | - |
* Rain latest hour (hover to see other rain measurements)
** Current wind speed in m/s (hover to see current wind gust speed)